Time;durP1;ratioP1;P1;durP2;ratioP2;P2;SDS_P1;SDS_P2;PMS_P1;PMS_P2;Temp;Humidity;BMP_temperature;BMP_pressure;BME280_temperature;BME280_humidity;BME280_pressure;Samples;Min_cycle;Max_cycle;Signal;HPM_P1;HPM_P2
2023/05/28 00:01:06;;;;;;;5.07;4.53;;;15.90;97.40;;;;;;5064279;28;20303;-70
2023/05/28 00:03:35;;;;;;;4.97;4.10;;;15.70;97.80;;;;;;5064931;28;20208;-70
2023/05/28 00:06:02;;;;;;;6.70;4.90;;;15.60;98.00;;;;;;5065357;28;20965;-70
2023/05/28 00:08:30;;;;;;;4.70;4.17;;;15.70;98.10;;;;;;5064783;28;20306;-70
2023/05/28 00:10:59;;;;;;;5.30;4.77;;;15.80;98.20;;;;;;5064819;28;20204;-70
2023/05/28 00:13:27;;;;;;;6.03;4.30;;;15.80;98.30;;;;;;5064453;28;20227;-70
2023/05/28 00:15:54;;;;;;;4.60;4.20;;;15.80;98.40;;;;;;5064368;28;20892;-70
2023/05/28 00:18:21;;;;;;;5.07;4.17;;;15.70;98.40;;;;;;5064387;28;20242;-70
2023/05/28 00:20:49;;;;;;;7.63;3.87;;;15.50;98.50;;;;;;5064681;28;20207;-71
2023/05/28 00:23:16;;;;;;;6.40;4.03;;;15.50;98.80;;;;;;5058196;28;20243;-70
2023/05/28 00:25:44;;;;;;;4.83;4.37;;;15.60;98.90;;;;;;5061648;28;20692;-71
2023/05/28 00:28:11;;;;;;;6.33;4.33;;;15.60;98.90;;;;;;5068650;28;20211;-70
2023/05/28 00:30:38;;;;;;;6.70;4.53;;;15.60;99.00;;;;;;5068133;28;20273;-71
2023/05/28 00:33:05;;;;;;;5.53;4.13;;;15.60;99.00;;;;;;5068399;28;20203;-70
2023/05/28 00:35:32;;;;;;;5.37;4.27;;;15.50;99.00;;;;;;5068365;28;20298;-70
2023/05/28 00:37:59;;;;;;;5.90;3.90;;;15.50;99.10;;;;;;5068445;28;20232;-70
2023/05/28 00:40:26;;;;;;;4.80;3.93;;;15.50;99.20;;;;;;5068402;28;20234;-70
2023/05/28 00:42:54;;;;;;;4.30;3.90;;;15.50;99.30;;;;;;5068589;28;20290;-70
2023/05/28 00:45:21;;;;;;;4.80;3.87;;;15.50;99.40;;;;;;5068120;28;20207;-70
2023/05/28 00:47:49;;;;;;;4.23;3.80;;;15.50;99.40;;;;;;5068232;28;20211;-71
2023/05/28 00:50:17;;;;;;;8.73;4.20;;;15.40;99.50;;;;;;5068464;28;20260;-70
2023/05/28 00:52:46;;;;;;;4.43;3.67;;;15.40;99.80;;;;;;5067907;28;20212;-70
2023/05/28 00:55:15;;;;;;;4.40;3.87;;;15.40;99.80;;;;;;5067938;28;20239;-70
2023/05/28 00:57:45;;;;;;;5.73;3.93;;;15.40;99.80;;;;;;5067622;28;20243;-70
2023/05/28 01:00:22;;;;;;;5.47;4.37;;;15.40;99.90;;;;;;5067982;28;20207;-70
2023/05/28 01:02:49;;;;;;;5.87;4.00;;;15.40;99.90;;;;;;5068255;28;20226;-69
2023/05/28 01:05:17;;;;;;;7.93;3.60;;;15.40;99.90;;;;;;5067894;28;20210;-69
2023/05/28 01:07:44;;;;;;;17.60;4.33;;;15.30;99.90;;;;;;5067457;28;20666;-69
2023/05/28 01:10:11;;;;;;;10.80;4.70;;;15.40;99.90;;;;;;5067683;28;20211;-69
2023/05/28 01:12:40;;;;;;;7.50;4.17;;;15.40;99.90;;;;;;5067197;28;20239;-69
2023/05/28 01:15:09;;;;;;;9.07;4.27;;;15.40;99.90;;;;;;5067489;28;20667;-69
2023/05/28 01:17:39;;;;;;;4.30;3.90;;;15.30;99.90;;;;;;5067015;28;20736;-69
2023/05/28 01:20:12;;;;;;;7.33;4.40;;;15.30;99.90;;;;;;5067409;28;21065;-70
2023/05/28 01:22:40;;;;;;;6.73;3.70;;;15.30;99.90;;;;;;5065881;28;20198;-70
2023/05/28 01:25:10;;;;;;;4.37;3.97;;;15.30;99.90;;;;;;5047708;28;20312;-70
2023/05/28 01:27:40;;;;;;;4.87;4.03;;;15.30;99.90;;;;;;5049398;28;20227;-70
2023/05/28 01:30:09;;;;;;;4.97;3.80;;;15.30;99.90;;;;;;5067502;28;20214;-70
2023/05/28 01:32:36;;;;;;;4.77;4.17;;;15.40;99.90;;;;;;5067338;28;20203;-71
2023/05/28 01:35:03;;;;;;;4.63;4.10;;;15.40;99.90;;;;;;5066944;28;20262;-79
2023/05/28 01:37:33;;;;;;;4.77;3.97;;;15.40;99.90;;;;;;5067749;28;20759;-79
2023/05/28 01:40:02;;;;;;;6.77;3.87;;;15.40;99.90;;;;;;5067370;28;20227;-73
2023/05/28 01:42:32;;;;;;;5.87;4.10;;;15.30;99.90;;;;;;5066877;28;20203;-73
2023/05/28 01:45:00;;;;;;;6.97;4.23;;;15.30;99.90;;;;;;5066948;28;20612;-74
2023/05/28 01:47:28;;;;;;;5.70;3.70;;;15.30;99.90;;;;;;5066827;28;20783;-73
2023/05/28 01:49:55;;;;;;;7.13;4.10;;;15.30;99.90;;;;;;5067007;28;20211;-70
2023/05/28 01:52:22;;;;;;;5.37;4.20;;;15.20;99.90;;;;;;5066525;28;20733;-70
2023/05/28 01:54:49;;;;;;;4.00;3.60;;;15.20;99.90;;;;;;5066482;28;20294;-71
2023/05/28 01:57:16;;;;;;;6.33;3.73;;;15.20;99.90;;;;;;5066668;28;20206;-71
2023/05/28 01:59:44;;;;;;;4.60;4.00;;;15.20;99.90;;;;;;5066353;28;20730;-71
2023/05/28 02:02:11;;;;;;;7.03;4.83;;;15.30;99.90;;;;;;5066480;28;20319;-71
2023/05/28 02:04:38;;;;;;;6.17;4.60;;;15.30;99.90;;;;;;5066313;28;20211;-71
2023/05/28 02:07:05;;;;;;;7.37;4.33;;;15.30;99.90;;;;;;5066650;28;20211;-71
2023/05/28 02:09:32;;;;;;;9.80;4.87;;;15.30;99.90;;;;;;5066331;28;20681;-71
2023/05/28 02:12:02;;;;;;;7.70;4.07;;;15.20;99.90;;;;;;5066170;28;20317;-71
2023/05/28 02:14:29;;;;;;;6.03;4.20;;;15.20;99.90;;;;;;5066193;28;20277;-71
2023/05/28 02:16:58;;;;;;;4.13;3.73;;;15.20;99.90;;;;;;5066176;28;20286;-71
2023/05/28 02:19:25;;;;;;;6.90;4.00;;;15.20;99.90;;;;;;5065983;28;20343;-71
2023/05/28 02:21:53;;;;;;;6.10;3.60;;;15.20;99.90;;;;;;5066404;28;20211;-72
2023/05/28 02:24:20;;;;;;;5.40;4.50;;;15.20;99.90;;;;;;5066200;28;20207;-71
2023/05/28 02:26:47;;;;;;;7.93;4.30;;;15.20;99.90;;;;;;5066321;28;20219;-71
2023/05/28 02:29:14;;;;;;;5.97;4.20;;;15.10;99.90;;;;;;5065916;28;20204;-70
2023/05/28 02:31:42;;;;;;;6.87;4.20;;;15.10;99.90;;;;;;5065490;28;20215;-70
2023/05/28 02:34:10;;;;;;;7.17;4.37;;;15.00;99.90;;;;;;5066300;28;20247;-70
2023/05/28 02:36:37;;;;;;;5.83;4.20;;;15.00;99.90;;;;;;5065763;28;20773;-70
2023/05/28 02:39:04;;;;;;;8.80;4.80;;;14.90;99.90;;;;;;5066069;28;20237;-70
2023/05/28 02:41:31;;;;;;;5.67;4.20;;;14.80;99.90;;;;;;5065897;28;20318;-70
2023/05/28 02:43:58;;;;;;;8.60;4.30;;;14.80;99.90;;;;;;5065840;28;20302;-71
2023/05/28 02:46:25;;;;;;;4.93;4.23;;;14.80;99.90;;;;;;5064815;28;20239;-71
2023/05/28 02:48:52;;;;;;;6.00;4.47;;;14.70;99.90;;;;;;5065743;28;20203;-73
2023/05/28 02:51:20;;;;;;;7.07;4.50;;;14.70;99.90;;;;;;5052325;28;20302;-73
2023/05/28 02:53:47;;;;;;;6.60;4.83;;;14.70;99.90;;;;;;5064373;28;20227;-73
2023/05/28 02:56:14;;;;;;;8.37;4.80;;;14.60;99.90;;;;;;5065484;28;20265;-73
2023/05/28 02:58:41;;;;;;;8.43;4.33;;;14.60;99.90;;;;;;5065209;28;20227;-73
2023/05/28 03:01:08;;;;;;;7.50;4.93;;;14.50;99.90;;;;;;5065229;28;20575;-74
2023/05/28 03:03:35;;;;;;;6.50;4.27;;;14.50;99.90;;;;;;5065110;28;20217;-71
2023/05/28 03:06:01;;;;;;;9.73;4.70;;;14.50;99.90;;;;;;5065280;28;20670;-70
2023/05/28 03:08:30;;;;;;;15.10;5.00;;;14.50;99.90;;;;;;5065724;28;20290;-71
2023/05/28 03:10:56;;;;;;;9.83;4.60;;;14.50;99.90;;;;;;5065104;28;20291;-71
2023/05/28 03:13:23;;;;;;;8.10;4.70;;;14.40;99.90;;;;;;5065486;28;20795;-70
2023/05/28 03:15:50;;;;;;;9.37;5.03;;;14.50;99.90;;;;;;5065717;28;20199;-70
2023/05/28 03:18:17;;;;;;;6.40;4.80;;;14.40;99.90;;;;;;5065433;28;20915;-70
2023/05/28 03:20:44;;;;;;;9.23;5.13;;;14.40;99.90;;;;;;5065008;28;20211;-70
2023/05/28 03:23:11;;;;;;;8.13;5.20;;;14.40;99.90;;;;;;5065170;28;20196;-70
2023/05/28 03:25:40;;;;;;;6.93;4.80;;;14.30;99.90;;;;;;5045431;28;20287;-70
2023/05/28 03:28:07;;;;;;;9.90;4.70;;;14.40;99.90;;;;;;5048870;28;20200;-71
2023/05/28 03:30:33;;;;;;;5.60;4.87;;;14.40;99.90;;;;;;5064985;28;20267;-70
2023/05/28 03:33:00;;;;;;;7.10;5.43;;;14.40;99.90;;;;;;5065219;28;20223;-71
2023/05/28 03:35:27;;;;;;;6.70;5.00;;;14.40;99.90;;;;;;5064797;28;20295;-70
2023/05/28 03:37:54;;;;;;;12.50;6.13;;;14.40;99.90;;;;;;5064838;28;20207;-70
2023/05/28 03:40:21;;;;;;;6.23;5.63;;;14.40;99.90;;;;;;5062396;28;20338;-74
2023/05/28 03:42:49;;;;;;;8.63;5.60;;;14.30;99.90;;;;;;5050118;28;20323;-73
2023/05/28 03:45:16;;;;;;;7.30;4.87;;;14.30;99.90;;;;;;5057728;28;20235;-72
2023/05/28 03:47:43;;;;;;;6.40;4.37;;;14.30;99.90;;;;;;5063893;28;20203;-71
2023/05/28 03:50:11;;;;;;;7.03;5.23;;;14.30;99.90;;;;;;5056048;28;21026;-75
2023/05/28 03:52:38;;;;;;;7.03;4.57;;;14.30;99.90;;;;;;5060897;28;20211;-73
2023/05/28 03:55:05;;;;;;;6.53;4.70;;;14.30;99.90;;;;;;5064674;28;20616;-73
2023/05/28 03:57:32;;;;;;;7.60;4.67;;;14.30;99.90;;;;;;5064842;28;20629;-73
2023/05/28 04:00:00;;;;;;;5.23;4.53;;;14.30;99.90;;;;;;5068429;28;20239;-73
2023/05/28 04:02:27;;;;;;;8.27;4.67;;;14.30;99.90;;;;;;5068041;28;20295;-73
2023/05/28 04:04:54;;;;;;;6.10;4.77;;;14.30;99.90;;;;;;5068554;28;20930;-73
2023/05/28 04:07:22;;;;;;;5.27;4.10;;;14.40;99.90;;;;;;5068495;28;20210;-74
2023/05/28 04:09:50;;;;;;;8.33;4.37;;;14.30;99.90;;;;;;5068593;28;20286;-73
2023/05/28 04:12:17;;;;;;;6.27;4.37;;;14.40;99.90;;;;;;5068068;28;20733;-73
2023/05/28 04:14:43;;;;;;;7.00;3.73;;;14.40;99.90;;;;;;5068386;28;20214;-73
2023/05/28 04:17:13;;;;;;;6.87;4.20;;;14.50;99.90;;;;;;5068272;28;20725;-73
2023/05/28 04:19:40;;;;;;;5.53;3.93;;;14.50;99.90;;;;;;5062511;28;20254;-73
2023/05/28 04:22:08;;;;;;;5.70;3.97;;;14.60;99.90;;;;;;5063045;28;20685;-73
2023/05/28 04:24:34;;;;;;;6.03;3.80;;;14.60;99.90;;;;;;5069120;28;20293;-75
2023/05/28 04:27:02;;;;;;;9.27;5.63;;;14.60;99.90;;;;;;5066609;28;20329;-74
2023/05/28 04:29:30;;;;;;;7.17;3.97;;;14.60;99.90;;;;;;5064266;28;20200;-76
2023/05/28 04:31:57;;;;;;;5.67;3.87;;;14.60;99.90;;;;;;5051477;28;20204;-75
2023/05/28 04:34:27;;;;;;;6.30;3.83;;;14.70;99.90;;;;;;5065917;28;20215;-77
2023/05/28 04:36:56;;;;;;;7.33;4.30;;;14.70;99.90;;;;;;5064989;28;20294;-77
2023/05/28 04:39:23;;;;;;;5.07;3.80;;;14.70;99.90;;;;;;5065946;28;20226;-70
2023/05/28 04:41:51;;;;;;;5.13;4.20;;;14.70;99.90;;;;;;5067586;28;20211;-71
2023/05/28 04:44:17;;;;;;;5.30;4.00;;;14.70;99.90;;;;;;5067935;28;20642;-72
2023/05/28 04:46:45;;;;;;;4.43;3.83;;;14.80;99.90;;;;;;5067683;28;20348;-75
2023/05/28 04:49:13;;;;;;;6.37;3.60;;;14.80;99.90;;;;;;5067796;28;20294;-79
2023/05/28 04:51:41;;;;;;;7.33;3.93;;;14.90;99.90;;;;;;5067861;28;20235;-71
2023/05/28 04:54:08;;;;;;;5.47;3.83;;;14.90;99.90;;;;;;5067488;28;20298;-70
2023/05/28 04:56:36;;;;;;;6.53;3.80;;;15.00;99.90;;;;;;5064177;28;20261;-76
2023/05/28 04:59:05;;;;;;;5.33;3.53;;;15.00;99.90;;;;;;5061870;28;20290;-73
2023/05/28 05:01:33;;;;;;;8.00;4.10;;;15.10;99.90;;;;;;5067509;28;20207;-74
2023/05/28 05:04:01;;;;;;;5.63;3.63;;;15.10;99.90;;;;;;5067487;28;20291;-74
2023/05/28 05:06:28;;;;;;;6.63;3.43;;;15.10;99.90;;;;;;5067508;28;20673;-74
2023/05/28 05:08:56;;;;;;;8.73;3.90;;;15.10;99.90;;;;;;5067321;28;20207;-73
2023/05/28 05:11:23;;;;;;;7.80;4.03;;;15.20;99.90;;;;;;5067455;28;20229;-73
2023/05/28 05:13:50;;;;;;;8.50;4.00;;;15.20;99.90;;;;;;5067574;28;20272;-79
2023/05/28 05:16:17;;;;;;;9.53;4.10;;;15.30;99.90;;;;;;5066762;28;20215;-77
2023/05/28 05:18:44;;;;;;;6.57;4.10;;;15.30;99.90;;;;;;5066826;28;20784;-78
2023/05/28 05:21:12;;;;;;;6.40;3.70;;;15.40;99.90;;;;;;5067514;28;20231;-76
2023/05/28 05:23:39;;;;;;;6.50;3.87;;;15.40;99.90;;;;;;5066915;28;20211;-77
2023/05/28 05:26:09;;;;;;;5.63;3.90;;;15.40;99.90;;;;;;5067834;28;20215;-77
2023/05/28 05:28:36;;;;;;;5.23;3.77;;;15.50;99.90;;;;;;5067505;28;20677;-79
2023/05/28 05:31:03;;;;;;;7.20;3.60;;;15.50;99.90;;;;;;5067401;28;20214;-79
2023/05/28 05:33:30;;;;;;;7.93;4.30;;;15.60;99.90;;;;;;5066924;28;20268;-78
2023/05/28 05:35:57;;;;;;;6.90;3.77;;;15.70;99.90;;;;;;5060967;28;20289;-78
2023/05/28 05:38:24;;;;;;;8.93;4.40;;;15.70;99.90;;;;;;5060153;28;20207;-77
2023/05/28 05:40:51;;;;;;;4.67;3.80;;;15.70;99.90;;;;;;5056794;28;20223;-77
2023/05/28 05:43:19;;;;;;;4.57;3.60;;;15.70;99.90;;;;;;5064509;28;20958;-78
2023/05/28 05:45:47;;;;;;;5.50;3.73;;;15.80;99.90;;;;;;5066210;28;20265;-77
2023/05/28 05:48:13;;;;;;;6.23;3.37;;;15.80;99.90;;;;;;5049692;28;20216;-78
2023/05/28 05:50:50;;;;;;;6.57;3.50;;;15.90;99.90;;;;;;5051453;28;20287;-78
2023/05/28 05:53:18;;;;;;;6.93;4.07;;;15.90;99.90;;;;;;5057852;28;20196;-79
2023/05/28 05:55:44;;;;;;;6.73;4.03;;;15.90;99.90;;;;;;5053542;28;20306;-80
2023/05/28 05:58:11;;;;;;;6.10;3.80;;;16.00;99.90;;;;;;5047182;28;20734;-83
2023/05/28 06:00:39;;;;;;;4.73;3.73;;;16.10;99.90;;;;;;5046799;28;20239;-81
2023/05/28 06:03:06;;;;;;;7.27;4.23;;;16.10;99.90;;;;;;5047569;28;20239;-77
2023/05/28 06:05:34;;;;;;;6.27;3.43;;;16.10;99.90;;;;;;5058861;28;20206;-77
2023/05/28 06:08:00;;;;;;;6.50;4.50;;;16.10;99.90;;;;;;5067388;28;20739;-77
2023/05/28 06:10:27;;;;;;;6.77;4.23;;;16.20;99.90;;;;;;5067313;28;20215;-77
2023/05/28 06:12:54;;;;;;;5.53;4.17;;;16.20;99.90;;;;;;5066602;28;20686;-77
2023/05/28 06:15:22;;;;;;;6.57;4.07;;;16.20;99.90;;;;;;5066755;28;20203;-77
2023/05/28 06:17:51;;;;;;;7.27;4.30;;;16.30;99.90;;;;;;5066351;28;20227;-77
2023/05/28 06:20:19;;;;;;;4.70;3.93;;;16.30;99.90;;;;;;5065490;28;20266;-77
2023/05/28 06:22:46;;;;;;;4.47;4.07;;;16.30;99.90;;;;;;5062420;28;20257;-77
2023/05/28 06:25:14;;;;;;;4.60;3.80;;;16.30;99.90;;;;;;5045381;28;20714;-77
2023/05/28 06:27:41;;;;;;;7.73;4.20;;;16.40;99.90;;;;;;5045342;28;20877;-77
2023/05/28 06:30:10;;;;;;;5.20;4.03;;;16.40;99.90;;;;;;5063861;28;20698;-77
2023/05/28 06:32:37;;;;;;;4.73;3.43;;;16.40;99.90;;;;;;5065903;28;20212;-77
2023/05/28 06:35:05;;;;;;;6.43;3.83;;;16.50;99.90;;;;;;5063212;28;20605;-80
2023/05/28 06:37:32;;;;;;;4.03;3.43;;;16.50;99.90;;;;;;5056826;28;20290;-79
2023/05/28 06:39:59;;;;;;;6.30;3.77;;;16.50;99.90;;;;;;5059574;28;20227;-80
2023/05/28 06:42:26;;;;;;;4.77;3.40;;;16.50;99.90;;;;;;5052259;28;20207;-80
2023/05/28 06:44:53;;;;;;;3.83;3.53;;;16.50;99.90;;;;;;5060493;28;20204;-79
2023/05/28 06:47:19;;;;;;;6.43;3.40;;;16.60;99.90;;;;;;5061911;28;20247;-79
2023/05/28 06:49:46;;;;;;;4.40;3.03;;;16.60;99.90;;;;;;5065708;28;20215;-79
2023/05/28 06:52:15;;;;;;;5.63;3.60;;;16.70;99.90;;;;;;5061035;28;20217;-80
2023/05/28 06:54:41;;;;;;;4.17;3.50;;;16.70;99.90;;;;;;5066064;28;20218;-81
2023/05/28 06:57:08;;;;;;;4.10;2.90;;;16.70;99.90;;;;;;5051997;28;20567;-81
2023/05/28 06:59:35;;;;;;;4.47;2.97;;;16.80;99.70;;;;;;5045780;28;20726;-80
2023/05/28 07:02:02;;;;;;;5.27;3.40;;;16.80;99.60;;;;;;5050080;28;20734;-81
2023/05/28 07:04:29;;;;;;;5.00;2.97;;;16.80;99.70;;;;;;5058649;28;20741;-81
2023/05/28 07:06:56;;;;;;;4.77;3.03;;;16.90;99.70;;;;;;5050840;28;20299;-71
2023/05/28 07:09:24;;;;;;;3.47;3.10;;;16.90;99.50;;;;;;5060064;28;20294;-74
2023/05/28 07:11:51;;;;;;;4.03;3.20;;;16.90;99.30;;;;;;5065694;28;21099;-78
2023/05/28 07:14:18;;;;;;;3.77;2.70;;;17.00;99.10;;;;;;5057639;28;20279;-79
2023/05/28 07:16:45;;;;;;;3.33;2.60;;;17.00;98.70;;;;;;5065362;28;20641;-80
2023/05/28 07:19:12;;;;;;;6.20;2.60;;;17.00;98.60;;;;;;5065414;28;20556;-77
2023/05/28 07:21:39;;;;;;;5.00;2.63;;;17.10;98.30;;;;;;5065276;28;20241;-78
2023/05/28 07:24:06;;;;;;;3.20;2.77;;;17.10;97.60;;;;;;5065387;28;20756;-79
2023/05/28 07:26:34;;;;;;;2.90;2.53;;;17.10;97.50;;;;;;5065378;28;20200;-83
2023/05/28 07:29:02;;;;;;;3.00;2.77;;;17.20;96.50;;;;;;5065825;28;20229;-75
2023/05/28 07:31:31;;;;;;;2.73;2.50;;;17.20;95.60;;;;;;5065232;28;20211;-76
2023/05/28 07:33:57;;;;;;;4.03;2.80;;;17.20;95.50;;;;;;5064775;28;20212;-76
2023/05/28 07:36:24;;;;;;;3.33;2.60;;;17.20;95.70;;;;;;5065424;28;20302;-76
2023/05/28 07:38:51;;;;;;;6.33;2.60;;;17.30;95.80;;;;;;5065459;28;20307;-76
2023/05/28 07:41:18;;;;;;;2.63;2.43;;;17.30;95.20;;;;;;5065368;28;20237;-75
2023/05/28 07:43:48;;;;;;;2.63;2.23;;;17.40;95.60;;;;;;5064963;28;20302;-76
2023/05/28 07:46:16;;;;;;;3.60;2.30;;;17.40;95.30;;;;;;5065492;28;20206;-75
2023/05/28 07:48:43;;;;;;;3.10;2.43;;;17.40;94.70;;;;;;5065222;28;20247;-75
2023/05/28 07:51:11;;;;;;;4.07;2.60;;;17.50;94.10;;;;;;5065273;28;20290;-75
2023/05/28 07:53:37;;;;;;;3.20;2.60;;;17.60;94.40;;;;;;5065026;28;20227;-75
2023/05/28 07:56:05;;;;;;;3.00;2.10;;;17.60;94.60;;;;;;5065134;28;20213;-75
2023/05/28 07:58:32;;;;;;;6.33;2.67;;;17.60;94.50;;;;;;5064169;28;20231;-76
2023/05/28 08:01:00;;;;;;;5.97;2.33;;;17.70;93.40;;;;;;5065094;28;20349;-76
2023/05/28 08:03:27;;;;;;;2.93;2.63;;;17.70;93.30;;;;;;5065609;28;20207;-76
2023/05/28 08:05:54;;;;;;;2.43;2.20;;;17.70;93.90;;;;;;5065532;28;20709;-75
2023/05/28 08:08:21;;;;;;;5.13;2.57;;;17.70;94.00;;;;;;5065656;28;20682;-75
2023/05/28 08:10:48;;;;;;;4.70;2.60;;;17.70;93.80;;;;;;5065648;28;20209;-76
2023/05/28 08:13:15;;;;;;;2.30;2.07;;;17.80;93.90;;;;;;5065155;28;20241;-75
2023/05/28 08:15:42;;;;;;;3.50;2.43;;;17.90;94.00;;;;;;5064743;28;20287;-75
2023/05/28 08:18:10;;;;;;;2.67;2.47;;;17.90;94.20;;;;;;5065010;28;20338;-75
2023/05/28 08:20:37;;;;;;;4.73;2.47;;;17.90;94.40;;;;;;5064986;28;20235;-75
2023/05/28 08:23:04;;;;;;;3.20;2.87;;;17.90;94.00;;;;;;5064925;28;20253;-75
2023/05/28 08:25:31;;;;;;;6.57;2.60;;;18.10;92.40;;;;;;5064938;28;20257;-75
2023/05/28 08:27:58;;;;;;;3.73;2.83;;;18.20;92.90;;;;;;5064885;28;20304;-76
2023/05/28 08:30:25;;;;;;;3.50;2.80;;;18.20;91.80;;;;;;5064781;28;20211;-76
2023/05/28 08:32:52;;;;;;;5.83;2.90;;;18.30;92.10;;;;;;5064645;28;20207;-76
2023/05/28 08:35:20;;;;;;;4.87;2.60;;;18.40;92.80;;;;;;5064839;28;20210;-76
2023/05/28 08:37:49;;;;;;;5.37;2.70;;;18.40;92.80;;;;;;5065028;28;20218;-76
2023/05/28 08:40:16;;;;;;;3.17;2.40;;;18.50;91.90;;;;;;5064502;28;20294;-76
2023/05/28 08:42:43;;;;;;;7.57;2.23;;;18.60;91.30;;;;;;5064572;28;20290;-72
2023/05/28 08:45:11;;;;;;;4.10;2.70;;;18.70;91.50;;;;;;5066228;28;20242;-81
2023/05/28 08:47:38;;;;;;;4.07;3.00;;;18.80;91.30;;;;;;5068809;28;20303;-81
2023/05/28 08:50:08;;;;;;;3.93;2.50;;;18.80;89.50;;;;;;5068939;28;20199;-81
2023/05/28 08:52:37;;;;;;;5.83;2.97;;;18.90;91.20;;;;;;5068521;28;20625;-75
2023/05/28 08:55:04;;;;;;;4.03;2.40;;;19.00;91.50;;;;;;5067812;28;20294;-73
2023/05/28 08:57:31;;;;;;;3.30;2.60;;;19.20;91.30;;;;;;5067955;28;20203;-73
2023/05/28 09:00:00;;;;;;;3.93;2.20;;;19.20;91.50;;;;;;5068016;28;20231;-66
2023/05/28 09:02:27;;;;;;;4.97;2.20;;;19.30;91.00;;;;;;5067554;28;20676;-73
2023/05/28 09:04:56;;;;;;;3.43;2.70;;;19.30;91.00;;;;;;5061484;28;20684;-73
2023/05/28 09:07:23;;;;;;;8.40;2.33;;;19.30;91.00;;;;;;5059384;28;20205;-73
2023/05/28 09:09:52;;;;;;;6.10;2.20;;;19.30;91.20;;;;;;5048122;28;20571;-73
2023/05/28 09:12:23;;;;;;;6.37;2.40;;;19.40;90.30;;;;;;5047811;28;20240;-73
2023/05/28 09:14:52;;;;;;;2.83;2.10;;;19.50;90.70;;;;;;5047994;28;20383;-73
2023/05/28 09:17:32;;;;;;;2.90;2.40;;;19.50;90.70;;;;;;5057315;28;20239;-73
2023/05/28 09:19:59;;;;;;;4.82;2.70;;;19.60;90.30;;;;;;5067537;28;20715;-74
2023/05/28 09:22:27;;;;;;;3.60;2.33;;;19.60;89.40;;;;;;5067971;28;20231;-73
2023/05/28 09:24:56;;;;;;;5.43;2.30;;;19.70;89.20;;;;;;5067165;28;20730;-73
2023/05/28 09:27:23;;;;;;;2.93;2.33;;;19.70;89.20;;;;;;5067472;28;20625;-73
2023/05/28 09:29:50;;;;;;;7.05;2.50;;;19.80;86.30;;;;;;5059014;28;20211;-74
2023/05/28 09:32:20;;;;;;;2.30;2.07;;;19.80;88.30;;;;;;5067275;28;20617;-74
2023/05/28 09:34:49;;;;;;;5.37;2.37;;;19.90;86.50;;;;;;5066866;28;20206;-74
2023/05/28 09:37:17;;;;;;;3.37;2.30;;;19.90;88.20;;;;;;5067159;28;20279;-74
2023/05/28 09:39:44;;;;;;;2.73;2.53;;;20.00;88.90;;;;;;5061079;28;20557;-74
2023/05/28 09:42:13;;;;;;;3.00;2.33;;;20.00;88.10;;;;;;5064066;28;20231;-73
2023/05/28 09:44:41;;;;;;;6.40;2.40;;;20.10;87.20;;;;;;5054868;28;20709;-74
2023/05/28 09:47:15;;;;;;;3.72;2.40;;;20.20;84.10;;;;;;5063160;28;20204;-73
2023/05/28 09:49:44;;;;;;;4.07;2.60;;;20.30;82.80;;;;;;5067010;28;20204;-73
2023/05/28 09:52:15;;;;;;;4.00;2.45;;;20.40;83.00;;;;;;5066611;28;20204;-73
2023/05/28 09:54:45;;;;;;;6.63;2.55;;;20.50;83.90;;;;;;5064765;28;20283;-73
2023/05/28 09:57:14;;;;;;;6.57;2.45;;;20.60;85.00;;;;;;5066177;28;20207;-73
2023/05/28 09:59:44;;;;;;;2.22;2.00;;;20.60;85.80;;;;;;5056858;28;20226;-74
2023/05/28 10:02:23;;;;;;;10.50;3.22;;;20.70;85.50;;;;;;5057348;28;20231;-74
2023/05/28 10:04:54;;;;;;;4.93;2.47;;;20.70;86.50;;;;;;5055687;28;20196;-74
2023/05/28 10:07:23;;;;;;;2.42;2.13;;;20.90;85.90;;;;;;5060111;28;20187;-73
2023/05/28 10:09:52;;;;;;;2.55;2.30;;;20.90;84.80;;;;;;5066636;28;20260;-74
2023/05/28 10:12:24;;;;;;;4.95;2.47;;;21.00;84.80;;;;;;5066508;28;20319;-74
2023/05/28 10:14:52;;;;;;;2.80;2.53;;;21.00;83.40;;;;;;5059813;28;20279;-74
2023/05/28 10:17:18;;;;;;;2.72;2.08;;;21.10;82.00;;;;;;5066365;28;20268;-74
2023/05/28 10:19:46;;;;;;;4.53;2.70;;;21.10;81.50;;;;;;5066174;28;20223;-75
2023/05/28 10:22:14;;;;;;;7.95;2.80;;;21.00;81.00;;;;;;5066039;28;20579;-74
2023/05/28 10:24:41;;;;;;;2.22;2.05;;;21.10;81.50;;;;;;5060569;28;21005;-75
2023/05/28 10:27:13;;;;;;;2.88;2.53;;;21.20;81.70;;;;;;5060329;28;21008;-74
2023/05/28 10:29:42;;;;;;;7.10;2.30;;;21.40;82.50;;;;;;5058908;28;20196;-74
2023/05/28 10:32:09;;;;;;;47.17;5.45;;;21.50;80.90;;;;;;5060854;28;20207;-74
2023/05/28 10:34:37;;;;;;;7.63;2.38;;;21.70;80.90;;;;;;5066200;28;20290;-74
2023/05/28 10:37:06;;;;;;;3.38;2.42;;;21.80;81.10;;;;;;5066355;28;20310;-74
2023/05/28 10:39:43;;;;;;;2.28;2.08;;;21.80;77.40;;;;;;5065723;28;20287;-75
2023/05/28 10:42:11;;;;;;;7.38;2.72;;;22.00;76.90;;;;;;5060788;28;20231;-74
2023/05/28 10:45:09;;;;;;;3.47;2.35;;;22.00;79.10;;;;;;5060134;28;20780;-75
2023/05/28 10:47:38;;;;;;;2.40;2.20;;;22.20;81.60;;;;;;5064363;28;20272;-74
2023/05/28 10:50:13;;;;;;;4.47;3.08;;;22.30;80.60;;;;;;5065964;28;20318;-74
2023/05/28 10:52:40;;;;;;;3.55;2.50;;;22.40;79.20;;;;;;5065606;28;20331;-74
2023/05/28 10:55:08;;;;;;;3.08;2.53;;;22.40;77.60;;;;;;5057287;28;20192;-75
2023/05/28 10:57:43;;;;;;;2.60;2.40;;;22.50;78.10;;;;;;5065644;28;20283;-74
2023/05/28 11:00:14;;;;;;;2.55;2.35;;;22.60;78.40;;;;;;5053313;28;20234;-74
2023/05/28 11:02:43;;;;;;;7.70;2.58;;;22.70;77.70;;;;;;5053307;28;20884;-74
2023/05/28 11:05:10;;;;;;;3.22;2.50;;;22.90;79.10;;;;;;5057339;28;20210;-74
2023/05/28 11:07:39;;;;;;;2.83;2.45;;;23.10;77.40;;;;;;5064776;28;20199;-73
2023/05/28 11:10:08;;;;;;;2.97;2.30;;;23.10;77.40;;;;;;5057260;28;20196;-73
2023/05/28 11:12:36;;;;;;;2.80;2.60;;;23.30;77.60;;;;;;5065374;28;20330;-74
2023/05/28 11:15:05;;;;;;;13.27;3.13;;;23.30;76.30;;;;;;5054543;28;20315;-74
2023/05/28 11:17:38;;;;;;;3.47;3.00;;;23.40;74.90;;;;;;5059258;28;20628;-74
2023/05/28 11:20:06;;;;;;;2.40;2.20;;;23.50;77.00;;;;;;5064933;28;20641;-74
2023/05/28 11:22:35;;;;;;;2.88;2.50;;;23.70;76.60;;;;;;5065683;28;20232;-74
2023/05/28 11:25:06;;;;;;;3.72;2.58;;;23.80;74.50;;;;;;5059317;28;20199;-74
2023/05/28 11:27:35;;;;;;;5.03;2.40;;;23.90;74.50;;;;;;5060314;28;20210;-75
2023/05/28 11:30:04;;;;;;;6.00;2.83;;;24.00;74.80;;;;;;5064969;28;21007;-76
2023/05/28 11:32:34;;;;;;;4.65;2.42;;;24.20;79.80;;;;;;5053287;28;20290;-73
2023/05/28 11:35:02;;;;;;;6.90;3.50;;;24.30;76.80;;;;;;5054941;28;20239;-75
2023/05/28 11:37:32;;;;;;;10.80;3.17;;;24.50;81.10;;;;;;5065733;28;20762;-73
2023/05/28 11:40:00;;;;;;;4.70;2.30;;;24.50;83.10;;;;;;5065464;28;20312;-74
2023/05/28 11:42:28;;;;;;;2.15;1.95;;;24.60;78.00;;;;;;5059002;28;20230;-73
2023/05/28 11:44:56;;;;;;;3.83;2.60;;;24.70;75.30;;;;;;5062015;28;20306;-73
2023/05/28 11:47:23;;;;;;;2.78;2.40;;;24.70;77.70;;;;;;5064974;28;20620;-75
2023/05/28 11:49:53;;;;;;;3.28;2.45;;;24.90;75.00;;;;;;5064749;28;20282;-74
2023/05/28 11:52:21;;;;;;;7.32;2.63;;;25.00;72.10;;;;;;5045415;28;20211;-74
2023/05/28 11:54:52;;;;;;;3.10;2.20;;;25.00;71.40;;;;;;5061401;28;20284;-75
2023/05/28 11:57:23;;;;;;;2.60;2.40;;;25.00;75.60;;;;;;5064956;28;20810;-72
2023/05/28 11:59:56;;;;;;;6.00;2.63;;;25.10;74.90;;;;;;5065174;28;20219;-74
2023/05/28 12:02:23;;;;;;;4.57;2.72;;;25.20;74.40;;;;;;5065287;28;20231;-75
2023/05/28 12:05:00;;;;;;;4.85;2.38;;;25.30;69.60;;;;;;5064561;28;20203;-76
2023/05/28 12:07:32;;;;;;;3.20;2.20;;;25.50;67.80;;;;;;5064084;28;20191;-75
2023/05/28 12:10:06;;;;;;;5.35;2.72;;;25.20;66.40;;;;;;5064522;28;20207;-72
2023/05/28 12:12:33;;;;;;;2.38;2.28;;;25.00;67.90;;;;;;5063869;28;20230;-73
2023/05/28 12:15:03;;;;;;;2.30;2.10;;;25.20;68.70;;;;;;5064009;28;20286;-72
2023/05/28 12:17:37;;;;;;;5.18;2.63;;;25.30;66.10;;;;;;5064422;28;20228;-72
2023/05/28 12:20:07;;;;;;;4.10;2.20;;;25.40;68.00;;;;;;5067173;28;20996;-74
2023/05/28 12:22:35;;;;;;;3.80;2.03;;;25.70;67.70;;;;;;5067320;28;20780;-73
2023/05/28 12:25:02;;;;;;;6.65;2.50;;;25.90;68.20;;;;;;5048293;28;20294;-74
2023/05/28 12:27:30;;;;;;;3.03;2.40;;;26.10;67.10;;;;;;5054877;28;20206;-74
2023/05/28 12:29:57;;;;;;;2.70;2.08;;;26.20;64.20;;;;;;5067787;28;20216;-73
2023/05/28 12:32:24;;;;;;;2.20;2.10;;;26.30;64.50;;;;;;5067635;28;20298;-74
2023/05/28 12:34:53;;;;;;;4.03;2.38;;;26.40;65.90;;;;;;5067690;28;20203;-74
2023/05/28 12:37:21;;;;;;;4.65;2.53;;;26.50;65.90;;;;;;5068077;28;20207;-74
2023/05/28 12:39:48;;;;;;;2.55;2.35;;;26.70;65.60;;;;;;5068522;28;20204;-74
2023/05/28 12:42:15;;;;;;;2.40;2.30;;;26.80;66.80;;;;;;5068470;28;20235;-74
2023/05/28 12:44:42;;;;;;;5.70;2.33;;;26.90;65.90;;;;;;5068355;28;20582;-75
2023/05/28 12:47:09;;;;;;;7.15;2.60;;;27.10;62.90;;;;;;5068637;28;20242;-82
2023/05/28 12:49:36;;;;;;;2.72;2.40;;;27.10;63.80;;;;;;5068382;28;20310;-75